createdAt,value
2019-02-12T00:00:52.210Z,91107.44
2019-02-12T00:03:42.065Z,91107.39
2019-02-12T00:06:31.538Z,91084.53
2019-02-12T00:09:20.903Z,91085.00
2019-02-12T00:12:10.518Z,91075.72
2019-02-12T00:15:00.394Z,91081.70
2019-02-12T00:17:49.665Z,91080.53
2019-02-12T00:20:38.640Z,91079.44
2019-02-12T00:23:31.878Z,91069.81
2019-02-12T00:26:21.504Z,91086.06
2019-02-12T00:29:11.006Z,91092.92
2019-02-12T00:32:00.095Z,91082.92
2019-02-12T00:34:48.921Z,91073.29
2019-02-12T00:37:37.845Z,91081.58
2019-02-12T00:40:27.095Z,91085.41
2019-02-12T00:43:16.060Z,91082.21
2019-02-12T00:46:05.654Z,91088.53
2019-02-12T00:48:55.116Z,91086.77
2019-02-12T00:51:44.587Z,91095.34
2019-02-12T00:54:33.631Z,91102.00
2019-02-12T00:57:22.712Z,91099.23
2019-02-12T01:00:13.683Z,91075.99
2019-02-12T01:03:03.108Z,91062.83
2019-02-12T01:05:52.010Z,91068.64
2019-02-12T01:08:41.276Z,91076.89
2019-02-12T01:11:30.589Z,91099.09
2019-02-12T01:14:19.830Z,91077.13
2019-02-12T01:17:08.978Z,91078.69
2019-02-12T01:19:57.925Z,91080.72
2019-02-12T01:22:47.170Z,91070.16
2019-02-12T01:25:36.392Z,91053.74
2019-02-12T01:28:25.960Z,91053.06
2019-02-12T01:31:20.190Z,91026.05
2019-02-12T01:34:08.866Z,91033.25
2019-02-12T01:36:58.144Z,91050.73
2019-02-12T01:39:47.823Z,91051.38
2019-02-12T01:42:37.326Z,91049.75
2019-02-12T01:45:26.936Z,91048.26
2019-02-12T01:48:16.223Z,91039.49
2019-02-12T01:51:08.055Z,91045.03
2019-02-12T01:53:56.902Z,91045.28
2019-02-12T01:56:51.430Z,91038.17
2019-02-12T01:59:40.747Z,91050.81
2019-02-12T02:02:30.414Z,91043.16
2019-02-12T02:05:19.958Z,91046.36
2019-02-12T02:08:09.369Z,91028.83
2019-02-12T02:10:58.742Z,91035.53
2019-02-12T02:13:47.771Z,91037.65
2019-02-12T02:16:37.016Z,91028.18
2019-02-12T02:19:26.710Z,91034.50
2019-02-12T02:22:15.917Z,91027.36
2019-02-12T02:25:05.842Z,91034.76
2019-02-12T02:27:55.483Z,91027.12
2019-02-12T02:30:44.896Z,91023.22
2019-02-12T02:33:34.206Z,91022.47
2019-02-12T02:36:23.808Z,91012.80
2019-02-12T02:39:13.027Z,91030.05
2019-02-12T02:42:02.356Z,91029.97
2019-02-12T02:44:51.767Z,91035.30
2019-02-12T02:47:41.659Z,91035.30
2019-02-12T02:50:31.082Z,91043.06
2019-02-12T02:53:20.595Z,91059.16
2019-02-12T02:56:09.787Z,91054.22
2019-02-12T02:58:59.028Z,91060.36
2019-02-12T03:01:48.475Z,91069.14
2019-02-12T03:04:38.132Z,91065.16
2019-02-12T03:07:27.323Z,91062.14
2019-02-12T03:10:16.671Z,91071.23
2019-02-12T03:13:05.878Z,91071.29
2019-02-12T03:15:54.759Z,91067.30
2019-02-12T03:18:44.198Z,91082.69
2019-02-12T03:21:33.624Z,91097.30
2019-02-12T03:24:23.170Z,91112.69
2019-02-12T03:27:12.726Z,91108.98
2019-02-12T03:30:01.451Z,91115.38
2019-02-12T03:32:50.772Z,91116.44
2019-02-12T03:35:40.187Z,91120.14
2019-02-12T03:38:29.965Z,91122.53
2019-02-12T03:41:19.059Z,91133.86
2019-02-12T03:44:08.220Z,91136.25
2019-02-12T03:46:57.463Z,91139.95
2019-02-12T03:49:46.755Z,91139.25
2019-02-12T03:52:36.142Z,91137.21
2019-02-12T03:55:25.543Z,91144.48
2019-02-12T03:58:14.584Z,91142.97
2019-02-12T04:01:04.048Z,91153.12
2019-02-12T04:03:53.632Z,91157.19
2019-02-12T04:06:43.257Z,91160.27
2019-02-12T04:09:32.511Z,91157.00
2019-02-12T04:12:21.914Z,91164.06
2019-02-12T04:15:11.422Z,91162.20
2019-02-12T04:18:01.229Z,91162.38
2019-02-12T04:20:50.658Z,91169.34
2019-02-12T04:23:39.490Z,91177.84
2019-02-12T04:26:28.810Z,91177.32
2019-02-12T04:29:18.294Z,91179.19
2019-02-12T04:32:07.639Z,91177.77
2019-02-12T04:34:56.722Z,91178.14
2019-02-12T04:37:45.948Z,91167.63
2019-02-12T04:40:35.488Z,91165.42
2019-02-12T04:43:24.499Z,91177.80
2019-02-12T04:46:13.973Z,91176.47
2019-02-12T04:49:03.349Z,91176.30
2019-02-12T04:51:52.841Z,91181.34
2019-02-12T04:54:42.100Z,91184.53
2019-02-12T04:57:31.717Z,91191.24
2019-02-12T05:00:20.937Z,91192.29
2019-02-12T05:03:10.041Z,91192.56
2019-02-12T05:05:59.442Z,91198.31
2019-02-12T05:09:31.316Z,91195.14
2019-02-12T05:12:22.003Z,91194.77
2019-02-12T05:15:11.572Z,91195.13
2019-02-12T05:18:00.798Z,91199.28
2019-02-12T05:20:50.269Z,91205.73
2019-02-12T05:23:39.828Z,91210.95
2019-02-12T05:26:28.903Z,91213.58
2019-02-12T05:29:18.500Z,91216.94
2019-02-12T05:32:07.091Z,91228.44
2019-02-12T05:34:56.367Z,91238.33
2019-02-12T05:37:48.785Z,91238.88
2019-02-12T05:40:38.645Z,91247.20
2019-02-12T05:43:27.964Z,91247.29
2019-02-12T05:46:17.310Z,91262.05
2019-02-12T05:49:06.705Z,91282.29
2019-02-12T05:51:56.273Z,91281.03
2019-02-12T05:54:45.390Z,91284.41
2019-02-12T05:57:34.818Z,91286.92
2019-02-12T06:00:26.647Z,91290.58
2019-02-12T06:03:16.279Z,91305.56
2019-02-12T06:06:05.539Z,91308.62
2019-02-12T06:08:54.823Z,91312.55
2019-02-12T06:11:43.931Z,91306.20
2019-02-12T06:14:33.193Z,91309.17
2019-02-12T06:17:22.387Z,91317.41
2019-02-12T06:20:13.079Z,91322.89
2019-02-12T06:23:04.072Z,91316.53
2019-02-12T06:25:52.623Z,91320.17
2019-02-12T06:28:41.947Z,91325.91
2019-02-12T06:31:31.211Z,91315.03
2019-02-12T06:34:20.557Z,91309.97
2019-02-12T06:37:10.168Z,91315.55
2019-02-12T06:39:59.596Z,91313.08
2019-02-12T06:42:48.880Z,91322.56
2019-02-12T06:45:38.065Z,91312.84
2019-02-12T06:48:27.366Z,91317.56
2019-02-12T06:51:16.551Z,91310.78
2019-02-12T06:54:05.913Z,91319.55
2019-02-12T06:56:55.617Z,91318.84
2019-02-12T06:59:44.824Z,91328.58
2019-02-12T07:03:10.951Z,91317.51
2019-02-12T07:06:16.105Z,91321.41
2019-02-12T07:09:36.103Z,91330.09
2019-02-12T07:13:03.361Z,91332.12
2019-02-12T07:16:14.497Z,91343.89
2019-02-12T07:19:42.964Z,91350.27
2019-02-12T07:22:59.911Z,91346.55
2019-02-12T07:26:09.079Z,91358.07
2019-02-12T07:29:23.635Z,91355.23
2019-02-12T07:33:13.163Z,91360.73
2019-02-12T07:36:26.958Z,91369.05
2019-02-12T07:40:15.312Z,91372.83
2019-02-12T07:43:55.532Z,91372.83
2019-02-12T07:47:24.797Z,91365.92
2019-02-12T07:50:58.177Z,91366.63
2019-02-12T07:54:13.709Z,91372.56
2019-02-12T07:57:27.831Z,91373.44
2019-02-12T08:00:42.217Z,91383.02
2019-02-12T08:04:05.018Z,91370.33
2019-02-12T08:07:34.190Z,91363.94
2019-02-12T08:11:06.031Z,91363.13
2019-02-12T08:14:26.453Z,91372.95
2019-02-12T08:18:08.039Z,91378.39
2019-02-12T08:21:20.760Z,91381.64
2019-02-12T08:24:57.243Z,91384.31
2019-02-12T08:28:39.753Z,91392.73
2019-02-12T08:31:38.546Z,91390.52
2019-02-12T08:34:57.373Z,91416.01
2019-02-12T08:38:29.120Z,91395.80
2019-02-12T08:41:59.201Z,91400.31
2019-02-12T08:45:30.830Z,91417.17
2019-02-12T08:49:07.245Z,91423.19
2019-02-12T08:56:17.022Z,91418.70
2019-02-12T08:59:44.400Z,91434.98
2019-02-12T09:03:24.960Z,91434.98
2019-02-12T09:07:04.303Z,91435.85
2019-02-12T09:10:40.984Z,91447.20
2019-02-12T09:14:07.685Z,91445.80
2019-02-12T09:17:41.265Z,91454.55
2019-02-12T09:21:01.157Z,91460.47
2019-02-12T09:24:13.264Z,91456.68
2019-02-12T09:27:43.057Z,91452.26
2019-02-12T09:31:12.367Z,91463.60
2019-02-12T09:34:27.306Z,91455.58
2019-02-12T09:37:52.744Z,91462.97
2019-02-12T09:40:57.129Z,91449.20
2019-02-12T09:44:36.529Z,91456.18
2019-02-12T09:48:02.926Z,91464.44
2019-02-12T09:51:28.597Z,91463.08
2019-02-12T09:54:54.131Z,91462.59
2019-02-12T09:58:12.575Z,91458.05
2019-02-12T10:01:28.062Z,91459.72
2019-02-12T10:04:46.723Z,91454.09
2019-02-12T10:08:02.762Z,91454.89
2019-02-12T10:11:35.406Z,91477.22
2019-02-12T10:14:39.978Z,91482.09
2019-02-12T10:18:12.831Z,91497.77
2019-02-12T10:21:37.110Z,91502.60
2019-02-12T10:25:07.060Z,91491.07
2019-02-12T10:28:16.543Z,91485.47
2019-02-12T10:31:41.053Z,91495.25
2019-02-12T10:34:30.429Z,91484.11
2019-02-12T10:37:19.669Z,91479.34
2019-02-12T10:40:08.639Z,91481.19
2019-02-12T10:42:57.854Z,91483.31
2019-02-12T10:45:46.731Z,91493.41
2019-02-12T10:48:37.242Z,91480.26
2019-02-12T10:51:26.025Z,91480.84
2019-02-12T10:54:27.718Z,91483.91
2019-02-12T10:57:10.575Z,91486.63
2019-02-12T10:59:59.388Z,91476.59
2019-02-12T11:02:48.768Z,91482.58
2019-02-12T11:05:38.160Z,91477.34
2019-02-12T11:08:27.307Z,91487.31
2019-02-12T11:11:16.249Z,91488.27
2019-02-12T11:14:05.631Z,91476.97
2019-02-12T11:16:54.692Z,91492.91
2019-02-12T11:19:43.497Z,91501.67
2019-02-12T11:22:33.195Z,91505.47
2019-02-12T11:25:22.619Z,91510.44
2019-02-12T11:28:11.796Z,91506.62
2019-02-12T11:31:01.010Z,91516.97
2019-02-12T11:33:49.999Z,91507.75
2019-02-12T11:36:39.123Z,91525.77
2019-02-12T11:39:28.521Z,91532.61
2019-02-12T11:42:17.934Z,91530.73
2019-02-12T11:45:08.673Z,91538.53
2019-02-12T11:47:57.984Z,91536.80
2019-02-12T11:50:48.293Z,91550.08
2019-02-12T11:53:37.905Z,91548.44
2019-02-12T11:56:27.163Z,91551.16
2019-02-12T11:59:16.485Z,91538.60
2019-02-12T12:02:05.846Z,91544.59
2019-02-12T12:04:54.775Z,91552.58
2019-02-12T12:07:44.703Z,91547.34
2019-02-12T12:10:33.846Z,91551.78
2019-02-12T12:13:23.169Z,91558.27
2019-02-12T12:16:12.518Z,91552.55
2019-02-12T12:19:01.900Z,91563.14
2019-02-12T12:21:51.785Z,91560.12
2019-02-12T12:24:40.836Z,91556.91
2019-02-12T12:27:30.295Z,91570.78
2019-02-12T12:30:19.738Z,91581.92
2019-02-12T12:33:08.536Z,91594.05
2019-02-12T12:35:58.055Z,91596.07
2019-02-12T12:38:47.350Z,91596.23
2019-02-12T12:41:36.670Z,91603.85
2019-02-12T12:44:25.706Z,91605.04
2019-02-12T12:47:15.309Z,91603.17
2019-02-12T12:50:05.555Z,91610.63
2019-02-12T12:52:55.745Z,91610.72
2019-02-12T12:55:45.361Z,91614.09
2019-02-12T12:58:34.703Z,91616.93
2019-02-12T13:01:24.298Z,91618.45
2019-02-12T13:03:57.547Z,91631.23
2019-02-12T13:06:28.559Z,91634.61
2019-02-12T13:08:59.850Z,91635.84
2019-02-12T13:11:30.982Z,91641.52
2019-02-12T13:14:01.998Z,91650.31
2019-02-12T13:16:33.178Z,91655.20
2019-02-12T13:19:04.182Z,91648.98
2019-02-12T13:21:35.182Z,91648.63
2019-02-12T13:24:06.348Z,91645.68
2019-02-12T13:26:37.359Z,91641.97
2019-02-12T13:29:08.354Z,91640.42
2019-02-12T13:31:39.416Z,91650.27
2019-02-12T13:34:10.420Z,91651.44
2019-02-12T13:36:41.873Z,91661.16
2019-02-12T13:39:13.303Z,91668.20
2019-02-12T13:41:44.386Z,91670.36
2019-02-12T13:44:15.632Z,91675.86
2019-02-12T13:46:46.821Z,91683.84
2019-02-12T13:49:17.952Z,91685.66
2019-02-12T13:51:48.957Z,91683.78
2019-02-12T13:54:20.918Z,91696.64
2019-02-12T13:56:52.006Z,91694.08
2019-02-12T13:59:23.386Z,91705.05
2019-02-12T14:01:54.687Z,91715.58
2019-02-12T14:04:25.836Z,91711.93
2019-02-12T14:06:56.996Z,91715.85
2019-02-12T14:09:28.474Z,91714.78
2019-02-12T14:11:59.642Z,91717.33
2019-02-12T14:14:31.184Z,91724.20
2019-02-12T14:17:03.642Z,91728.25
2019-02-12T14:19:34.760Z,91724.53
2019-02-12T14:22:05.995Z,91728.16
2019-02-12T14:24:37.145Z,91728.47
2019-02-12T14:27:08.239Z,91747.59
2019-02-12T14:29:39.595Z,91732.20
2019-02-12T14:32:10.616Z,91747.23
2019-02-12T14:34:42.088Z,91754.28
2019-02-12T14:37:13.176Z,91747.09
2019-02-12T14:39:44.899Z,91755.24
2019-02-12T14:42:16.100Z,91763.64
2019-02-12T14:44:47.652Z,91767.86
2019-02-12T14:47:18.859Z,91767.09
2019-02-12T14:49:49.975Z,91780.25
2019-02-12T14:52:29.081Z,91770.39
2019-02-12T14:55:07.789Z,91775.06
2019-02-12T14:57:38.924Z,91768.84
2019-02-12T15:00:12.746Z,91785.19
2019-02-12T15:02:43.847Z,91795.39
2019-02-12T15:05:33.051Z,91788.97
2019-02-12T15:08:22.452Z,91792.96
2019-02-12T15:11:12.254Z,91795.02
2019-02-12T15:14:01.809Z,91793.30
2019-02-12T15:16:51.654Z,91801.55
2019-02-12T15:19:40.517Z,91801.55
2019-02-12T15:22:30.270Z,91807.05
2019-02-12T15:25:19.742Z,91814.80
2019-02-12T15:28:08.659Z,91819.68
2019-02-12T15:30:58.569Z,91826.09
2019-02-12T15:33:48.518Z,91831.80
2019-02-12T15:36:37.606Z,91838.61
2019-02-12T15:39:26.986Z,91834.02
2019-02-12T15:42:16.295Z,91843.28
2019-02-12T15:45:06.426Z,91849.61
2019-02-12T15:47:56.118Z,91853.69
2019-02-12T15:50:48.363Z,91854.89
2019-02-12T15:53:37.587Z,91860.37
2019-02-12T15:56:27.852Z,91871.05
2019-02-12T15:59:16.973Z,91873.60
2019-02-12T16:02:06.025Z,91889.59
2019-02-12T16:04:55.411Z,91885.68
2019-02-12T16:07:47.484Z,91892.59
2019-02-12T16:10:37.513Z,91902.85
2019-02-12T16:13:26.181Z,91904.26
2019-02-12T16:16:15.895Z,91908.19
2019-02-12T16:19:09.571Z,91909.44
2019-02-12T16:21:59.303Z,91914.41
2019-02-12T16:24:49.045Z,91923.14
2019-02-12T16:27:38.422Z,91930.33
2019-02-12T16:30:27.971Z,91933.97
2019-02-12T16:33:17.130Z,91935.91
2019-02-12T16:36:06.715Z,91939.80
2019-02-12T16:38:56.075Z,91944.55
2019-02-12T16:41:46.021Z,91958.56
2019-02-12T16:44:35.750Z,91961.80
2019-02-12T16:47:25.555Z,91960.67
2019-02-12T16:50:14.874Z,91961.28
2019-02-12T16:53:04.402Z,91970.03
2019-02-12T16:55:54.231Z,91972.05
2019-02-12T16:58:44.858Z,91980.98
2019-02-12T17:01:34.190Z,91984.52
2019-02-12T17:04:23.639Z,91975.54
2019-02-12T17:07:13.114Z,91984.52
2019-02-12T17:10:02.809Z,91983.97
2019-02-12T17:12:52.314Z,92000.39
2019-02-12T17:15:41.825Z,92003.14
2019-02-12T17:18:31.615Z,92007.61
2019-02-12T17:21:21.225Z,92010.75
2019-02-12T17:24:10.622Z,92007.28
2019-02-12T17:26:59.685Z,92011.95
2019-02-12T17:29:48.856Z,92016.09
2019-02-12T17:32:38.426Z,92018.17
2019-02-12T17:35:27.705Z,92016.41
2019-02-12T17:38:16.769Z,92017.80
2019-02-12T17:41:06.230Z,92018.56
2019-02-12T17:43:55.834Z,92027.04
2019-02-12T17:46:45.221Z,92030.02
2019-02-12T17:49:35.085Z,92037.61
2019-02-12T17:52:24.022Z,92028.85
2019-02-12T17:55:13.626Z,92027.69
2019-02-12T17:58:02.992Z,92033.53
2019-02-12T18:00:53.289Z,92040.16
2019-02-12T18:03:42.698Z,92034.86
2019-02-12T18:06:32.392Z,92037.17
2019-02-12T18:09:21.811Z,92040.08
2019-02-12T18:12:11.453Z,92050.00
2019-02-12T18:15:01.060Z,92052.53
2019-02-12T18:17:50.434Z,92048.14
2019-02-12T18:20:39.586Z,92050.27
2019-02-12T18:23:28.986Z,92049.60
2019-02-12T18:26:18.279Z,92053.76
2019-02-12T18:29:08.024Z,92055.27
2019-02-12T18:31:56.864Z,92054.62
2019-02-12T18:34:46.662Z,92063.00
2019-02-12T18:37:36.138Z,92072.14
2019-02-12T18:40:25.785Z,92058.63
2019-02-12T18:43:15.148Z,92067.50
2019-02-12T18:46:05.106Z,92068.48
2019-02-12T18:48:54.277Z,92082.02
2019-02-12T18:51:44.030Z,92073.38
2019-02-12T18:54:33.676Z,92076.40
2019-02-12T18:57:23.751Z,92085.88
2019-02-12T19:00:15.633Z,92092.66
2019-02-12T19:03:05.518Z,92096.25
2019-02-12T19:05:55.168Z,92098.12
2019-02-12T19:08:46.125Z,92100.23
2019-02-12T19:11:36.101Z,92106.01
2019-02-12T19:14:29.839Z,92108.05
2019-02-12T19:17:19.755Z,92110.34
2019-02-12T19:20:10.675Z,92111.89
2019-02-12T19:23:01.138Z,92119.55
2019-02-12T19:25:51.042Z,92113.10
2019-02-12T19:28:40.564Z,92120.80
2019-02-12T19:31:30.481Z,92116.09
2019-02-12T19:34:20.248Z,92127.39
2019-02-12T19:37:09.780Z,92121.52
2019-02-12T19:39:59.467Z,92134.40
2019-02-12T19:42:48.774Z,92132.53
2019-02-12T19:45:38.244Z,92136.80
2019-02-12T19:48:29.143Z,92134.17
2019-02-12T19:51:18.462Z,92128.56
2019-02-12T19:54:08.096Z,92135.48
2019-02-12T19:56:58.500Z,92146.05
2019-02-12T19:59:48.982Z,92142.73
2019-02-12T20:02:38.293Z,92145.65
2019-02-12T20:05:30.132Z,92145.50
2019-02-12T20:08:19.442Z,92145.42
2019-02-12T20:11:09.171Z,92147.13
2019-02-12T20:13:58.922Z,92150.86
2019-02-12T20:16:48.570Z,92143.62
2019-02-12T20:19:37.579Z,92151.11
2019-02-12T20:22:27.191Z,92145.70
2019-02-12T20:25:36.975Z,92156.75
2019-02-12T20:28:26.719Z,92156.02
2019-02-12T20:31:16.044Z,92167.67
2019-02-12T20:34:05.634Z,92164.77
2019-02-12T20:36:54.714Z,92161.78
2019-02-12T20:39:44.293Z,92170.53
2019-02-12T20:42:33.869Z,92174.02
2019-02-12T20:45:23.698Z,92168.75
2019-02-12T20:48:12.892Z,92172.85
2019-02-12T20:51:04.841Z,92182.07
2019-02-12T20:53:54.395Z,92179.68
2019-02-12T20:56:43.809Z,92182.23
2019-02-12T20:59:33.761Z,92182.94
2019-02-12T21:02:23.512Z,92191.58
2019-02-12T21:05:14.136Z,92183.64
2019-02-12T21:08:03.513Z,92189.65
2019-02-12T21:10:52.435Z,92181.02
2019-02-12T21:13:42.256Z,92190.98
2019-02-12T21:16:31.739Z,92192.30
2019-02-12T21:19:21.933Z,92182.47
2019-02-12T21:22:10.887Z,92187.73
2019-02-12T21:25:00.353Z,92179.70
2019-02-12T21:27:50.115Z,92181.73
2019-02-12T21:30:39.474Z,92185.81
2019-02-12T21:33:28.716Z,92183.47
2019-02-12T21:36:23.726Z,92180.11
2019-02-12T21:39:13.695Z,92179.12
2019-02-12T21:42:03.138Z,92187.63
2019-02-12T21:44:52.024Z,92186.42
2019-02-12T21:47:41.726Z,92177.30
2019-02-12T21:50:33.404Z,92175.91
2019-02-12T21:53:22.700Z,92177.80
2019-02-12T21:56:11.918Z,92176.95
2019-02-12T21:59:01.204Z,92164.84
2019-02-12T22:01:50.681Z,92172.87
2019-02-12T22:04:40.232Z,92172.31
2019-02-12T22:07:29.536Z,92173.72
2019-02-12T22:10:19.091Z,92178.49
2019-02-12T22:13:08.349Z,92181.61
2019-02-12T22:15:57.742Z,92183.17
2019-02-12T22:18:47.039Z,92180.11
2019-02-12T22:21:36.332Z,92184.78
2019-02-12T22:24:25.601Z,92193.18
2019-02-12T22:27:15.324Z,92193.74
2019-02-12T22:30:04.406Z,92202.61
2019-02-12T22:32:53.494Z,92197.81
2019-02-12T22:35:43.105Z,92199.97
2019-02-12T22:38:32.505Z,92208.25
2019-02-12T22:41:21.834Z,92210.09
2019-02-12T22:44:11.940Z,92215.84
2019-02-12T22:47:04.640Z,92215.72
2019-02-12T22:49:53.418Z,92228.07
2019-02-12T22:52:42.717Z,92221.00
2019-02-12T22:55:35.343Z,92222.92
2019-02-12T22:58:28.064Z,92226.27
2019-02-12T23:01:19.494Z,92229.39
2019-02-12T23:04:09.280Z,92232.63
2019-02-12T23:06:58.766Z,92224.00
2019-02-12T23:09:58.247Z,92240.18
2019-02-12T23:12:47.745Z,92236.34
2019-02-12T23:15:36.791Z,92234.19
2019-02-12T23:18:25.883Z,92238.98
2019-02-12T23:21:15.357Z,92236.58
2019-02-12T23:24:05.244Z,92241.11
2019-02-12T23:26:54.672Z,92228.67
2019-02-12T23:29:44.438Z,92236.19
2019-02-12T23:32:33.853Z,92239.70
2019-02-12T23:35:23.082Z,92241.37
2019-02-12T23:38:12.543Z,92245.45
2019-02-12T23:41:06.158Z,92242.58
2019-02-12T23:43:55.666Z,92247.14
2019-02-12T23:46:46.839Z,92255.41
2019-02-12T23:49:36.444Z,92258.88
2019-02-12T23:52:26.260Z,92250.36
2019-02-12T23:55:15.499Z,92249.29
2019-02-12T23:58:06.233Z,92255.52
